sensor_id;sensor_type;location;lat;lon;timestamp;pressure;altitude;pressure_sealevel;temperature;humidity
71966;BME280;59836;52.132;5.442;2023-09-19T00:00:37;100712.31;;;15.71;100.00
71966;BME280;59836;52.132;5.442;2023-09-19T00:03:05;100718.06;;;15.70;100.00
71966;BME280;59836;52.132;5.442;2023-09-19T00:05:49;100720.31;;;15.68;100.00
71966;BME280;59836;52.132;5.442;2023-09-19T00:08:16;100720.63;;;15.66;100.00
71966;BME280;59836;52.132;5.442;2023-09-19T00:10:43;100725.59;;;15.64;100.00
71966;BME280;59836;52.132;5.442;2023-09-19T00:13:12;100737.31;;;15.64;100.00
71966;BME280;59836;52.132;5.442;2023-09-19T00:15:51;100737.94;;;15.61;100.00
71966;BME280;59836;52.132;5.442;2023-09-19T00:18:20;100740.69;;;15.61;100.00
71966;BME280;59836;52.132;5.442;2023-09-19T00:20:50;100745.63;;;15.59;100.00
71966;BME280;59836;52.132;5.442;2023-09-19T00:23:19;100748.69;;;15.58;100.00
71966;BME280;59836;52.132;5.442;2023-09-19T00:26:01;100728.72;;;15.57;100.00
71966;BME280;59836;52.132;5.442;2023-09-19T00:28:27;100733.41;;;15.57;100.00
71966;BME280;59836;52.132;5.442;2023-09-19T00:30:58;100746.25;;;15.56;100.00
71966;BME280;59836;52.132;5.442;2023-09-19T00:33:35;100734.31;;;15.52;100.00
71966;BME280;59836;52.132;5.442;2023-09-19T00:36:02;100738.16;;;15.51;100.00
71966;BME280;59836;52.132;5.442;2023-09-19T00:38:32;100750.19;;;15.50;100.00
71966;BME280;59836;52.132;5.442;2023-09-19T00:41:09;100749.09;;;15.51;100.00
71966;BME280;59836;52.132;5.442;2023-09-19T00:43:39;100745.84;;;15.49;100.00
71966;BME280;59836;52.132;5.442;2023-09-19T00:46:25;100742.63;;;15.47;100.00
71966;BME280;59836;52.132;5.442;2023-09-19T00:49:01;100740.19;;;15.45;100.00
71966;BME280;59836;52.132;5.442;2023-09-19T00:51:44;100744.84;;;15.45;100.00
71966;BME280;59836;52.132;5.442;2023-09-19T00:54:13;100748.41;;;15.45;100.00
71966;BME280;59836;52.132;5.442;2023-09-19T00:56:45;100759.00;;;15.47;100.00
71966;BME280;59836;52.132;5.442;2023-09-19T00:59:22;100748.91;;;15.47;100.00
71966;BME280;59836;52.132;5.442;2023-09-19T01:02:25;100755.16;;;15.48;100.00
71966;BME280;59836;52.132;5.442;2023-09-19T01:04:54;100761.13;;;15.50;100.00
71966;BME280;59836;52.132;5.442;2023-09-19T01:07:21;100762.75;;;15.51;100.00
71966;BME280;59836;52.132;5.442;2023-09-19T01:10:01;100768.53;;;15.49;100.00
71966;BME280;59836;52.132;5.442;2023-09-19T01:17:53;100766.09;;;15.48;100.00
71966;BME280;59836;52.132;5.442;2023-09-19T01:20:32;100771.28;;;15.49;100.00
71966;BME280;59836;52.132;5.442;2023-09-19T01:31:51;100770.56;;;15.44;100.00
71966;BME280;59836;52.132;5.442;2023-09-19T01:34:56;100765.09;;;15.44;100.00
71966;BME280;59836;52.132;5.442;2023-09-19T01:37:30;100770.56;;;15.44;100.00
71966;BME280;59836;52.132;5.442;2023-09-19T01:40:06;100771.38;;;15.44;100.00
71966;BME280;59836;52.132;5.442;2023-09-19T01:42:54;100767.81;;;15.44;100.00
71966;BME280;59836;52.132;5.442;2023-09-19T01:45:46;100770.56;;;15.44;100.00
71966;BME280;59836;52.132;5.442;2023-09-19T01:48:57;100771.66;;;15.43;100.00
71966;BME280;59836;52.132;5.442;2023-09-19T01:51:47;100778.25;;;15.42;100.00
71966;BME280;59836;52.132;5.442;2023-09-19T01:54:47;100778.56;;;15.40;100.00
71966;BME280;59836;52.132;5.442;2023-09-19T01:58:08;100776.63;;;15.41;100.00
71966;BME280;59836;52.132;5.442;2023-09-19T02:00:42;100773.59;;;15.42;100.00
71966;BME280;59836;52.132;5.442;2023-09-19T02:03:17;100791.41;;;15.40;100.00
71966;BME280;59836;52.132;5.442;2023-09-19T02:05:58;100779.16;;;15.37;100.00
71966;BME280;59836;52.132;5.442;2023-09-19T02:08:25;100779.50;;;15.35;100.00
71966;BME280;59836;52.132;5.442;2023-09-19T02:10:59;100782.22;;;15.35;100.00
71966;BME280;59836;52.132;5.442;2023-09-19T02:13:26;100774.03;;;15.35;100.00
71966;BME280;59836;52.132;5.442;2023-09-19T02:16:10;100772.91;;;15.37;100.00
71966;BME280;59836;52.132;5.442;2023-09-19T02:18:39;100777.56;;;15.36;100.00
71966;BME280;59836;52.132;5.442;2023-09-19T02:21:15;100766.94;;;15.34;100.00
71966;BME280;59836;52.132;5.442;2023-09-19T02:23:46;100768.66;;;15.30;100.00
71966;BME280;59836;52.132;5.442;2023-09-19T02:26:26;100779.09;;;15.28;100.00
71966;BME280;59836;52.132;5.442;2023-09-19T02:29:25;100782.94;;;15.27;100.00
71966;BME280;59836;52.132;5.442;2023-09-19T02:31:53;100786.78;;;15.26;100.00
71966;BME280;59836;52.132;5.442;2023-09-19T02:34:25;100784.94;;;15.22;100.00
71966;BME280;59836;52.132;5.442;2023-09-19T02:37:25;100784.75;;;15.18;100.00
71966;BME280;59836;52.132;5.442;2023-09-19T02:39:52;100792.94;;;15.18;100.00
71966;BME280;59836;52.132;5.442;2023-09-19T02:42:34;100795.66;;;15.18;100.00
71966;BME280;59836;52.132;5.442;2023-09-19T02:45:01;100791.00;;;15.18;100.00
71966;BME280;59836;52.132;5.442;2023-09-19T02:47:29;100791.31;;;15.17;100.00
71966;BME280;59836;52.132;5.442;2023-09-19T02:49:57;100790.81;;;15.15;100.00
71966;BME280;59836;52.132;5.442;2023-09-19T02:52:34;100795.75;;;15.13;100.00
71966;BME280;59836;52.132;5.442;2023-09-19T02:55:03;100792.81;;;15.09;100.00
71966;BME280;59836;52.132;5.442;2023-09-19T02:57:36;100792.81;;;15.09;100.00
71966;BME280;59836;52.132;5.442;2023-09-19T03:00:18;100788.25;;;15.04;100.00
71966;BME280;59836;52.132;5.442;2023-09-19T03:02:49;100794.84;;;15.03;100.00
71966;BME280;59836;52.132;5.442;2023-09-19T03:05:17;100793.22;;;15.02;100.00
71966;BME280;59836;52.132;5.442;2023-09-19T03:07:57;100799.28;;;14.99;100.00
71966;BME280;59836;52.132;5.442;2023-09-19T03:10:30;100789.56;;;14.93;100.00
71966;BME280;59836;52.132;5.442;2023-09-19T03:12:57;100784.69;;;14.90;100.00
71966;BME280;59836;52.132;5.442;2023-09-19T03:15:36;100780.44;;;14.84;100.00
71966;BME280;59836;52.132;5.442;2023-09-19T03:18:05;100796.63;;;14.80;100.00
71966;BME280;59836;52.132;5.442;2023-09-19T03:20:53;100786.28;;;14.77;100.00
71966;BME280;59836;52.132;5.442;2023-09-19T03:23:38;100796.38;;;14.76;100.00
71966;BME280;59836;52.132;5.442;2023-09-19T03:26:05;100791.53;;;14.73;100.00
71966;BME280;59836;52.132;5.442;2023-09-19T03:28:33;100782.81;;;14.71;100.00
71966;BME280;59836;52.132;5.442;2023-09-19T03:31:31;100790.50;;;14.69;100.00
71966;BME280;59836;52.132;5.442;2023-09-19T03:33:58;100791.06;;;14.66;99.99
71966;BME280;59836;52.132;5.442;2023-09-19T03:36:24;100788.75;;;14.59;100.00
71966;BME280;59836;52.132;5.442;2023-09-19T03:38:51;100793.38;;;14.59;99.85
71966;BME280;59836;52.132;5.442;2023-09-19T03:41:48;100795.59;;;14.57;99.86
71966;BME280;59836;52.132;5.442;2023-09-19T03:44:19;100785.78;;;14.56;100.00
71966;BME280;59836;52.132;5.442;2023-09-19T03:46:58;100781.75;;;14.53;99.78
71966;BME280;59836;52.132;5.442;2023-09-19T03:49:27;100781.50;;;14.50;98.49
71966;BME280;59836;52.132;5.442;2023-09-19T03:51:57;100781.91;;;14.43;98.68
71966;BME280;59836;52.132;5.442;2023-09-19T03:54:27;100784.13;;;14.41;98.85
71966;BME280;59836;52.132;5.442;2023-09-19T03:56:53;100792.38;;;14.36;98.98
71966;BME280;59836;52.132;5.442;2023-09-19T03:59:20;100787.19;;;14.34;99.23
71966;BME280;59836;52.132;5.442;2023-09-19T04:02:14;100801.66;;;14.35;99.04
71966;BME280;59836;52.132;5.442;2023-09-19T04:04:58;100805.50;;;14.34;98.46
71966;BME280;59836;52.132;5.442;2023-09-19T04:07:37;100806.63;;;14.32;98.68
71966;BME280;59836;52.132;5.442;2023-09-19T04:10:04;100803.69;;;14.29;97.84
71966;BME280;59836;52.132;5.442;2023-09-19T04:12:37;100809.72;;;14.26;97.31
71966;BME280;59836;52.132;5.442;2023-09-19T04:15:16;100816.34;;;14.20;97.73
71966;BME280;59836;52.132;5.442;2023-09-19T04:17:57;100816.88;;;14.22;97.93
71966;BME280;59836;52.132;5.442;2023-09-19T04:20:27;100819.59;;;14.22;97.22
71966;BME280;59836;52.132;5.442;2023-09-19T04:23:10;100816.94;;;14.16;97.24
71966;BME280;59836;52.132;5.442;2023-09-19T04:25:41;100817.03;;;14.11;97.63
71966;BME280;59836;52.132;5.442;2023-09-19T04:28:11;100836.91;;;14.12;97.34
71966;BME280;59836;52.132;5.442;2023-09-19T04:30:38;100826.81;;;14.12;96.78
71966;BME280;59836;52.132;5.442;2023-09-19T04:33:07;100849.22;;;14.09;97.17
71966;BME280;59836;52.132;5.442;2023-09-19T04:35:34;100836.69;;;14.08;96.82
71966;BME280;59836;52.132;5.442;2023-09-19T04:38:01;100845.97;;;14.07;96.62
71966;BME280;59836;52.132;5.442;2023-09-19T04:40:29;100855.53;;;14.05;95.84
71966;BME280;59836;52.132;5.442;2023-09-19T04:42:56;100862.94;;;14.04;96.46
71966;BME280;59836;52.132;5.442;2023-09-19T04:45:30;100864.56;;;14.05;96.91
71966;BME280;59836;52.132;5.442;2023-09-19T04:47:56;100866.19;;;14.06;96.93
71966;BME280;59836;52.132;5.442;2023-09-19T04:50:56;100860.19;;;14.04;96.77
71966;BME280;59836;52.132;5.442;2023-09-19T04:53:29;100865.13;;;14.02;96.76
71966;BME280;59836;52.132;5.442;2023-09-19T04:55:55;100856.44;;;14.00;96.97
71966;BME280;59836;52.132;5.442;2023-09-19T04:58:35;100847.72;;;13.98;97.04
71966;BME280;59836;52.132;5.442;2023-09-19T05:01:09;100853.19;;;13.98;97.05
71966;BME280;59836;52.132;5.442;2023-09-19T05:03:38;100847.72;;;13.98;97.39
71966;BME280;59836;52.132;5.442;2023-09-19T05:06:05;100849.13;;;13.95;96.51
71966;BME280;59836;52.132;5.442;2023-09-19T05:08:39;100856.19;;;13.96;96.81
71966;BME280;59836;52.132;5.442;2023-09-19T05:11:09;100860.84;;;13.96;96.82
71966;BME280;59836;52.132;5.442;2023-09-19T05:13:50;100857.59;;;13.94;97.35
71966;BME280;59836;52.132;5.442;2023-09-19T05:16:38;100859.22;;;13.95;97.59
71966;BME280;59836;52.132;5.442;2023-09-19T05:19:10;100862.47;;;13.97;97.93
71966;BME280;59836;52.132;5.442;2023-09-19T05:21:38;100864.91;;;13.98;97.41
71966;BME280;59836;52.132;5.442;2023-09-19T05:24:37;100859.44;;;13.98;98.08
71966;BME280;59836;52.132;5.442;2023-09-19T05:27:15;100865.53;;;13.90;97.86
71966;BME280;59836;52.132;5.442;2023-09-19T05:29:50;100870.19;;;13.90;97.71
71966;BME280;59836;52.132;5.442;2023-09-19T05:32:33;100873.13;;;13.93;98.48
71966;BME280;59836;52.132;5.442;2023-09-19T05:35:00;100863.06;;;13.94;98.12
71966;BME280;59836;52.132;5.442;2023-09-19T05:37:29;100864.69;;;13.95;97.82
71966;BME280;59836;52.132;5.442;2023-09-19T05:39:56;100853.53;;;13.91;98.27
71966;BME280;59836;52.132;5.442;2023-09-19T05:42:39;100850.53;;;13.93;98.13
71966;BME280;59836;52.132;5.442;2023-09-19T05:45:06;100850.53;;;13.93;98.35
71966;BME280;59836;52.132;5.442;2023-09-19T05:47:33;100855.97;;;13.93;98.22
71966;BME280;59836;52.132;5.442;2023-09-19T05:50:01;100853.84;;;13.90;98.59
71966;BME280;59836;52.132;5.442;2023-09-19T05:52:31;100862.22;;;13.93;98.46
71966;BME280;59836;52.132;5.442;2023-09-19T05:55:00;100864.69;;;13.95;98.63
71966;BME280;59836;52.132;5.442;2023-09-19T05:57:26;100863.84;;;13.94;98.59
71966;BME280;59836;52.132;5.442;2023-09-19T05:59:54;100873.38;;;13.97;98.57
71966;BME280;59836;52.132;5.442;2023-09-19T06:02:22;100875.00;;;13.98;98.98
71966;BME280;59836;52.132;5.442;2023-09-19T06:04:58;100879.03;;;14.00;98.97
71966;BME280;59836;52.132;5.442;2023-09-19T06:07:25;100877.66;;;14.03;98.70
71966;BME280;59836;52.132;5.442;2023-09-19T06:09:52;100880.91;;;14.05;98.70
71966;BME280;59836;52.132;5.442;2023-09-19T06:12:24;100888.00;;;14.06;99.19
71966;BME280;59836;52.132;5.442;2023-09-19T06:14:51;100896.19;;;14.06;98.91
71966;BME280;59836;52.132;5.442;2023-09-19T06:17:37;100892.94;;;14.04;98.92
71966;BME280;59836;52.132;5.442;2023-09-19T06:20:28;100888.06;;;14.01;98.65
71966;BME280;59836;52.132;5.442;2023-09-19T06:22:54;100892.41;;;14.02;99.08
71966;BME280;59836;52.132;5.442;2023-09-19T06:25:21;100894.56;;;14.05;99.00
71966;BME280;59836;52.132;5.442;2023-09-19T06:27:50;100897.84;;;14.02;99.23
71966;BME280;59836;52.132;5.442;2023-09-19T06:30:24;100895.94;;;14.02;99.23
71966;BME280;59836;52.132;5.442;2023-09-19T06:32:59;100902.22;;;14.03;99.87
71966;BME280;59836;52.132;5.442;2023-09-19T06:35:26;100901.09;;;14.04;99.50
71966;BME280;59836;52.132;5.442;2023-09-19T06:37:57;100888.00;;;14.06;99.97
71966;BME280;59836;52.132;5.442;2023-09-19T06:40:25;100885.78;;;14.08;99.65
71966;BME280;59836;52.132;5.442;2023-09-19T06:42:52;100887.41;;;14.09;99.55
71966;BME280;59836;52.132;5.442;2023-09-19T06:45:23;100882.75;;;14.10;99.83
71966;BME280;59836;52.132;5.442;2023-09-19T06:47:54;100882.16;;;14.13;100.00
71966;BME280;59836;52.132;5.442;2023-09-19T06:50:24;100883.00;;;14.13;100.00
71966;BME280;59836;52.132;5.442;2023-09-19T06:52:53;100881.06;;;14.14;100.00
71966;BME280;59836;52.132;5.442;2023-09-19T06:55:30;100877.75;;;14.17;100.00
71966;BME280;59836;52.132;5.442;2023-09-19T06:57:59;100882.94;;;14.19;100.00
71966;BME280;59836;52.132;5.442;2023-09-19T07:00:26;100886.69;;;14.23;100.00
71966;BME280;59836;52.132;5.442;2023-09-19T07:03:00;100890.00;;;14.20;100.00
71966;BME280;59836;52.132;5.442;2023-09-19T07:05:47;100880.19;;;14.19;100.00
71966;BME280;59836;52.132;5.442;2023-09-19T07:08:14;100882.63;;;14.20;100.00
71966;BME280;59836;52.132;5.442;2023-09-19T07:10:42;100886.38;;;14.24;100.00
71966;BME280;59836;52.132;5.442;2023-09-19T07:13:51;100888.00;;;14.25;100.00
71966;BME280;59836;52.132;5.442;2023-09-19T07:16:17;100891.56;;;14.26;100.00
71966;BME280;59836;52.132;5.442;2023-09-19T07:18:56;100891.25;;;14.27;100.00
71966;BME280;59836;52.132;5.442;2023-09-19T07:21:28;100899.66;;;14.31;100.00
71966;BME280;59836;52.132;5.442;2023-09-19T07:23:54;100903.72;;;14.34;100.00
71966;BME280;59836;52.132;5.442;2023-09-19T07:26:21;100896.84;;;14.36;100.00
71966;BME280;59836;52.132;5.442;2023-09-19T07:28:50;100903.94;;;14.37;100.00
71966;BME280;59836;52.132;5.442;2023-09-19T07:31:16;100906.66;;;14.37;100.00
71966;BME280;59836;52.132;5.442;2023-09-19T07:33:43;100910.44;;;14.41;100.00
71966;BME280;59836;52.132;5.442;2023-09-19T07:36:14;100912.06;;;14.42;100.00
71966;BME280;59836;52.132;5.442;2023-09-19T07:38:41;100916.13;;;14.45;100.00
71966;BME280;59836;52.132;5.442;2023-09-19T07:41:08;100921.00;;;14.48;100.00
71966;BME280;59836;52.132;5.442;2023-09-19T07:43:37;100917.38;;;14.53;100.00
71966;BME280;59836;52.132;5.442;2023-09-19T07:46:08;100915.75;;;14.52;100.00
71966;BME280;59836;52.132;5.442;2023-09-19T07:48:38;100913.78;;;14.57;100.00
71966;BME280;59836;52.132;5.442;2023-09-19T07:51:05;100914.81;;;14.61;100.00
71966;BME280;59836;52.132;5.442;2023-09-19T07:53:36;100912.59;;;14.64;100.00
71966;BME280;59836;52.132;5.442;2023-09-19T07:56:05;100908.75;;;14.65;100.00
71966;BME280;59836;52.132;5.442;2023-09-19T07:58:33;100915.25;;;14.69;100.00
71966;BME280;59836;52.132;5.442;2023-09-19T08:01:07;100908.41;;;14.71;100.00
71966;BME280;59836;52.132;5.442;2023-09-19T08:03:34;100914.09;;;14.75;100.00
71966;BME280;59836;52.132;5.442;2023-09-19T08:06:01;100912.69;;;14.78;100.00
71966;BME280;59836;52.132;5.442;2023-09-19T08:08:27;100916.44;;;14.82;100.00
71966;BME280;59836;52.132;5.442;2023-09-19T08:11:00;100919.88;;;14.87;100.00
71966;BME280;59836;52.132;5.442;2023-09-19T08:13:31;100920.63;;;14.93;100.00
71966;BME280;59836;52.132;5.442;2023-09-19T08:15:58;100921.66;;;14.97;100.00
71966;BME280;59836;52.132;5.442;2023-09-19T08:18:24;100918.63;;;14.99;100.00
71966;BME280;59836;52.132;5.442;2023-09-19T08:20:55;100911.78;;;15.01;100.00
71966;BME280;59836;52.132;5.442;2023-09-19T08:23:32;100920.47;;;15.03;100.00
71966;BME280;59836;52.132;5.442;2023-09-19T08:25:59;100906.50;;;15.05;100.00
71966;BME280;59836;52.132;5.442;2023-09-19T08:28:50;100912.78;;;15.05;100.00
71966;BME280;59836;52.132;5.442;2023-09-19T08:31:18;100909.97;;;15.11;100.00
71966;BME280;59836;52.132;5.442;2023-09-19T08:33:44;100903.91;;;15.14;100.00
71966;BME280;59836;52.132;5.442;2023-09-19T08:36:55;100908.19;;;15.20;100.00
71966;BME280;59836;52.132;5.442;2023-09-19T08:39:25;100904.94;;;15.18;100.00
71966;BME280;59836;52.132;5.442;2023-09-19T08:41:59;100911.44;;;15.22;100.00
71966;BME280;59836;52.132;5.442;2023-09-19T08:44:45;100905.38;;;15.25;100.00
71966;BME280;59836;52.132;5.442;2023-09-19T08:47:15;100899.59;;;15.27;100.00
71966;BME280;59836;52.132;5.442;2023-09-19T08:50:04;100905.06;;;15.27;100.00
71966;BME280;59836;52.132;5.442;2023-09-19T08:52:42;100906.69;;;15.28;100.00
71966;BME280;59836;52.132;5.442;2023-09-19T08:55:13;100895.66;;;15.33;100.00
71966;BME280;59836;52.132;5.442;2023-09-19T08:57:52;100897.78;;;15.36;100.00
71966;BME280;59836;52.132;5.442;2023-09-19T09:00:18;100900.22;;;15.38;100.00
71966;BME280;59836;52.132;5.442;2023-09-19T09:03:03;100908.13;;;15.39;100.00
71966;BME280;59836;52.132;5.442;2023-09-19T09:05:35;100905.59;;;15.43;100.00
71966;BME280;59836;52.132;5.442;2023-09-19T09:08:13;100897.91;;;15.45;100.00
71966;BME280;59836;52.132;5.442;2023-09-19T09:10:51;100904.38;;;15.49;100.00
71966;BME280;59836;52.132;5.442;2023-09-19T09:13:24;100909.25;;;15.52;100.00
71966;BME280;59836;52.132;5.442;2023-09-19T09:15:52;100909.16;;;15.57;100.00
71966;BME280;59836;52.132;5.442;2023-09-19T09:21:21;100900.34;;;15.60;100.00
71966;BME280;59836;52.132;5.442;2023-09-19T09:23:57;100904.59;;;15.67;100.00
71966;BME280;59836;52.132;5.442;2023-09-19T09:26:53;100904.81;;;15.70;100.00
71966;BME280;59836;52.132;5.442;2023-09-19T09:29:52;100896.91;;;15.69;100.00
71966;BME280;59836;52.132;5.442;2023-09-19T09:32:26;100889.03;;;15.67;100.00
71966;BME280;59836;52.132;5.442;2023-09-19T09:34:55;100899.13;;;15.67;100.00
71966;BME280;59836;52.132;5.442;2023-09-19T09:37:29;100885.47;;;15.67;99.87
71966;BME280;59836;52.132;5.442;2023-09-19T09:40:02;100888.72;;;15.69;99.62
71966;BME280;59836;52.132;5.442;2023-09-19T09:42:40;100888.94;;;15.72;100.00
71966;BME280;59836;52.132;5.442;2023-09-19T09:45:25;100884.56;;;15.71;99.26
71966;BME280;59836;52.132;5.442;2023-09-19T09:48:07;100882.84;;;15.75;99.65
71966;BME280;59836;52.132;5.442;2023-09-19T09:50:48;100874.56;;;15.81;100.00
71966;BME280;59836;52.132;5.442;2023-09-19T09:53:22;100878.22;;;15.90;100.00
71966;BME280;59836;52.132;5.442;2023-09-19T09:56:08;100900.69;;;16.01;100.00
71966;BME280;59836;52.132;5.442;2023-09-19T09:58:51;100879.31;;;16.03;99.03
71966;BME280;59836;52.132;5.442;2023-09-19T10:01:54;100872.72;;;16.04;99.42
71966;BME280;59836;52.132;5.442;2023-09-19T10:08:18;100877.09;;;16.05;98.37
71966;BME280;59836;52.132;5.442;2023-09-19T10:10:50;100890.25;;;16.03;98.99
71966;BME280;59836;52.132;5.442;2023-09-19T10:13:29;100884.78;;;16.03;98.75
71966;BME280;59836;52.132;5.442;2023-09-19T10:19:30;100884.78;;;16.03;98.52
71966;BME280;59836;52.132;5.442;2023-09-19T10:22:04;100873.84;;;16.03;98.51
71966;BME280;59836;52.132;5.442;2023-09-19T10:24:36;100884.28;;;16.01;97.67
71966;BME280;59836;52.132;5.442;2023-09-19T10:27:24;100877.19;;;16.00;96.82
71966;BME280;59836;52.132;5.442;2023-09-19T10:29:55;100863.81;;;15.98;95.88
71966;BME280;59836;52.132;5.442;2023-09-19T10:32:25;100862.69;;;15.99;96.45
71966;BME280;59836;52.132;5.442;2023-09-19T10:34:55;100874.84;;;16.07;96.30
71966;BME280;59836;52.132;5.442;2023-09-19T10:37:24;100861.06;;;16.12;96.57
71966;BME280;59836;52.132;5.442;2023-09-19T10:39:56;100873.00;;;16.16;96.58
71966;BME280;59836;52.132;5.442;2023-09-19T10:42:27;100837.34;;;16.21;95.91
71966;BME280;59836;52.132;5.442;2023-09-19T10:44:57;100838.34;;;16.26;95.35
71966;BME280;59836;52.132;5.442;2023-09-19T10:47:31;100841.25;;;16.29;95.59
71966;BME280;59836;52.132;5.442;2023-09-19T10:50:04;100836.28;;;16.31;95.94
71966;BME280;59836;52.132;5.442;2023-09-19T10:52:33;100836.50;;;16.35;96.53
71966;BME280;59836;52.132;5.442;2023-09-19T10:55:16;100840.53;;;16.37;96.81
71966;BME280;59836;52.132;5.442;2023-09-19T10:57:47;100827.16;;;16.36;96.13
71966;BME280;59836;52.132;5.442;2023-09-19T11:00:50;100826.53;;;16.39;95.85
71966;BME280;59836;52.132;5.442;2023-09-19T11:03:21;100827.03;;;16.41;95.87
71966;BME280;59836;52.132;5.442;2023-09-19T11:06:02;100822.03;;;16.43;95.38
71966;BME280;59836;52.132;5.442;2023-09-19T11:11:46;100824.84;;;16.52;96.24
71966;BME280;59836;52.132;5.442;2023-09-19T11:30:42;100791.00;;;16.71;94.77
71966;BME280;59836;52.132;5.442;2023-09-19T11:33:20;100804.06;;;16.74;93.65
71966;BME280;59836;52.132;5.442;2023-09-19T11:36:14;100810.66;;;16.73;94.11
71966;BME280;59836;52.132;5.442;2023-09-19T11:41:38;100791.31;;;16.69;95.24
71966;BME280;59836;52.132;5.442;2023-09-19T11:49:27;100800.75;;;16.63;94.69
71966;BME280;59836;52.132;5.442;2023-09-19T11:51:56;100790.31;;;16.65;93.81
71966;BME280;59836;52.132;5.442;2023-09-19T11:54:24;100784.22;;;16.68;94.57
71966;BME280;59836;52.132;5.442;2023-09-19T11:56:54;100778.94;;;16.72;93.23
71966;BME280;59836;52.132;5.442;2023-09-19T11:59:22;100787.81;;;16.77;93.34
71966;BME280;59836;52.132;5.442;2023-09-19T12:01:54;100789.44;;;16.78;93.60
71966;BME280;59836;52.132;5.442;2023-09-19T12:04:34;100781.69;;;16.80;92.67
71966;BME280;59836;52.132;5.442;2023-09-19T12:07:08;100792.66;;;16.80;92.46
71966;BME280;59836;52.132;5.442;2023-09-19T12:09:43;100805.56;;;16.80;92.08
71966;BME280;59836;52.132;5.442;2023-09-19T12:12:23;100824.72;;;16.80;91.69
71966;BME280;59836;52.132;5.442;2023-09-19T12:14:50;100805.84;;;16.78;92.02
71966;BME280;59836;52.132;5.442;2023-09-19T12:17:18;100804.44;;;16.81;91.36
71966;BME280;59836;52.132;5.442;2023-09-19T12:19:51;100810.91;;;16.85;91.47
71966;BME280;59836;52.132;5.442;2023-09-19T12:22:18;100799.13;;;16.85;90.65
71966;BME280;59836;52.132;5.442;2023-09-19T12:24:47;100795.28;;;16.86;91.66
71966;BME280;59836;52.132;5.442;2023-09-19T12:27:14;100787.53;;;16.88;91.47
71966;BME280;59836;52.132;5.442;2023-09-19T12:29:48;100788.66;;;16.87;92.31
71966;BME280;59836;52.132;5.442;2023-09-19T12:32:16;100806.22;;;16.86;91.31
71966;BME280;59836;52.132;5.442;2023-09-19T12:34:52;100800.25;;;16.83;92.51
71966;BME280;59836;52.132;5.442;2023-09-19T12:37:21;100789.13;;;16.80;91.56
71966;BME280;59836;52.132;5.442;2023-09-19T12:39:50;100788.31;;;16.79;92.13
71966;BME280;59836;52.132;5.442;2023-09-19T12:42:20;100783.66;;;16.80;92.94
71966;BME280;59836;52.132;5.442;2023-09-19T12:44:50;100792.66;;;16.80;92.08
71966;BME280;59836;52.132;5.442;2023-09-19T12:47:24;100794.91;;;16.78;91.43
71966;BME280;59836;52.132;5.442;2023-09-19T12:52:37;100802.63;;;16.76;91.04
71966;BME280;59836;52.132;5.442;2023-09-19T12:55:05;100799.59;;;16.78;90.65
71966;BME280;59836;52.132;5.442;2023-09-19T12:57:34;100798.75;;;16.77;90.89
71966;BME280;59836;52.132;5.442;2023-09-19T13:00:02;100794.91;;;16.78;91.53
71966;BME280;59836;52.132;5.442;2023-09-19T13:02:29;100805.06;;;16.78;92.19
71966;BME280;59836;52.132;5.442;2023-09-19T13:04:55;100798.63;;;16.82;91.59
71966;BME280;59836;52.132;5.442;2023-09-19T13:07:45;100798.84;;;16.86;92.18
71966;BME280;59836;52.132;5.442;2023-09-19T13:10:16;100798.50;;;16.88;92.78
71966;BME280;59836;52.132;5.442;2023-09-19T13:12:43;100794.66;;;16.89;92.46
71966;BME280;59836;52.132;5.442;2023-09-19T13:15:15;100786.63;;;16.92;92.64
71966;BME280;59836;52.132;5.442;2023-09-19T13:17:49;100801.09;;;16.93;92.26
71966;BME280;59836;52.132;5.442;2023-09-19T13:20:24;100812.91;;;16.93;92.46
71966;BME280;59836;52.132;5.442;2023-09-19T13:22:54;100813.81;;;16.89;91.27
71966;BME280;59836;52.132;5.442;2023-09-19T13:25:25;100805.59;;;16.89;91.58
71966;BME280;59836;52.132;5.442;2023-09-19T13:27:56;100818.81;;;16.87;91.94
71966;BME280;59836;52.132;5.442;2023-09-19T13:30:49;100819.44;;;16.83;92.00
71966;BME280;59836;52.132;5.442;2023-09-19T13:33:17;100812.34;;;16.82;93.12
71966;BME280;59836;52.132;5.442;2023-09-19T13:36:09;100808.47;;;16.83;93.36
71966;BME280;59836;52.132;5.442;2023-09-19T13:38:36;100803.19;;;16.87;93.22
71966;BME280;59836;52.132;5.442;2023-09-19T13:41:05;100796.75;;;16.92;92.36
71966;BME280;59836;52.132;5.442;2023-09-19T13:43:32;100797.25;;;16.94;92.15
71966;BME280;59836;52.132;5.442;2023-09-19T13:45:59;100790.84;;;16.99;91.47
71966;BME280;59836;52.132;5.442;2023-09-19T13:48:25;100790.53;;;17.00;91.21
71966;BME280;59836;52.132;5.442;2023-09-19T13:50:52;100777.34;;;17.02;90.74
71966;BME280;59836;52.132;5.442;2023-09-19T13:53:19;100776.22;;;17.03;91.07
71966;BME280;59836;52.132;5.442;2023-09-19T14:06:41;100782.34;;;17.09;90.07
71966;BME280;59836;52.132;5.442;2023-09-19T14:09:09;100776.38;;;17.07;90.70
71966;BME280;59836;52.132;5.442;2023-09-19T14:11:37;100781.06;;;17.06;90.97
71966;BME280;59836;52.132;5.442;2023-09-19T14:14:03;100776.72;;;17.05;91.90
71966;BME280;59836;52.132;5.442;2023-09-19T14:16:31;100777.84;;;17.04;90.99
71966;BME280;59836;52.132;5.442;2023-09-19T14:19:03;100781.38;;;17.05;90.82
71966;BME280;59836;52.132;5.442;2023-09-19T14:21:36;100786.06;;;17.04;91.00
71966;BME280;59836;52.132;5.442;2023-09-19T14:24:27;100780.88;;;17.03;90.50
71966;BME280;59836;52.132;5.442;2023-09-19T14:26:55;100795.41;;;17.03;91.01